sensor_id;sensor_type;location;lat;lon;timestamp;P1;durP1;ratioP1;P2;durP2;ratioP2
58302;SDS011;44109;52.398;7.024;2022-07-06T00:00:26;3.20;;;2.10;;
58302;SDS011;44109;52.398;7.024;2022-07-06T00:02:53;3.33;;;2.38;;
58302;SDS011;44109;52.398;7.024;2022-07-06T00:05:21;3.17;;;2.53;;
58302;SDS011;44109;52.398;7.024;2022-07-06T00:07:48;3.92;;;2.63;;
58302;SDS011;44109;52.398;7.024;2022-07-06T00:10:17;4.07;;;2.67;;
58302;SDS011;44109;52.398;7.024;2022-07-06T00:12:45;3.95;;;2.58;;
58302;SDS011;44109;52.398;7.024;2022-07-06T00:15:12;5.47;;;2.78;;
58302;SDS011;44109;52.398;7.024;2022-07-06T00:17:40;4.90;;;2.70;;
58302;SDS011;44109;52.398;7.024;2022-07-06T00:20:08;3.45;;;2.53;;
58302;SDS011;44109;52.398;7.024;2022-07-06T00:22:36;3.80;;;2.63;;
58302;SDS011;44109;52.398;7.024;2022-07-06T00:25:04;3.80;;;2.28;;
58302;SDS011;44109;52.398;7.024;2022-07-06T00:27:35;4.65;;;2.85;;
58302;SDS011;44109;52.398;7.024;2022-07-06T00:30:03;3.95;;;2.95;;
58302;SDS011;44109;52.398;7.024;2022-07-06T00:32:31;4.22;;;3.10;;
58302;SDS011;44109;52.398;7.024;2022-07-06T00:34:59;2.97;;;2.55;;
58302;SDS011;44109;52.398;7.024;2022-07-06T00:37:26;3.60;;;2.33;;
58302;SDS011;44109;52.398;7.024;2022-07-06T00:39:54;4.07;;;2.80;;
58302;SDS011;44109;52.398;7.024;2022-07-06T00:42:21;4.72;;;2.63;;
58302;SDS011;44109;52.398;7.024;2022-07-06T00:44:51;4.60;;;3.10;;
58302;SDS011;44109;52.398;7.024;2022-07-06T00:47:19;5.25;;;3.72;;
58302;SDS011;44109;52.398;7.024;2022-07-06T00:49:46;3.67;;;2.63;;
58302;SDS011;44109;52.398;7.024;2022-07-06T00:52:31;4.28;;;3.10;;
58302;SDS011;44109;52.398;7.024;2022-07-06T00:54:59;4.00;;;2.47;;
58302;SDS011;44109;52.398;7.024;2022-07-06T00:57:28;3.38;;;2.85;;
58302;SDS011;44109;52.398;7.024;2022-07-06T00:59:57;5.15;;;2.75;;
58302;SDS011;44109;52.398;7.024;2022-07-06T01:02:25;4.78;;;3.22;;
58302;SDS011;44109;52.398;7.024;2022-07-06T01:04:53;4.60;;;2.97;;
58302;SDS011;44109;52.398;7.024;2022-07-06T01:07:20;5.53;;;3.28;;
58302;SDS011;44109;52.398;7.024;2022-07-06T01:09:48;5.45;;;3.28;;
58302;SDS011;44109;52.398;7.024;2022-07-06T01:12:15;4.78;;;3.53;;
58302;SDS011;44109;52.398;7.024;2022-07-06T01:14:44;4.50;;;3.63;;
58302;SDS011;44109;52.398;7.024;2022-07-06T01:17:14;6.18;;;3.55;;
58302;SDS011;44109;52.398;7.024;2022-07-06T01:19:44;4.55;;;3.42;;
58302;SDS011;44109;52.398;7.024;2022-07-06T01:22:13;6.00;;;3.70;;
58302;SDS011;44109;52.398;7.024;2022-07-06T01:24:41;4.95;;;3.05;;
58302;SDS011;44109;52.398;7.024;2022-07-06T01:27:08;3.70;;;3.05;;
58302;SDS011;44109;52.398;7.024;2022-07-06T01:29:36;5.38;;;3.58;;
58302;SDS011;44109;52.398;7.024;2022-07-06T01:32:04;5.60;;;3.58;;
58302;SDS011;44109;52.398;7.024;2022-07-06T01:34:33;5.65;;;3.30;;
58302;SDS011;44109;52.398;7.024;2022-07-06T01:37:01;3.80;;;3.30;;
58302;SDS011;44109;52.398;7.024;2022-07-06T01:39:30;5.68;;;3.60;;
58302;SDS011;44109;52.398;7.024;2022-07-06T01:41:58;5.50;;;3.90;;
58302;SDS011;44109;52.398;7.024;2022-07-06T01:44:25;5.43;;;3.95;;
58302;SDS011;44109;52.398;7.024;2022-07-06T01:46:53;4.45;;;3.63;;
58302;SDS011;44109;52.398;7.024;2022-07-06T01:49:20;5.05;;;3.75;;
58302;SDS011;44109;52.398;7.024;2022-07-06T01:51:48;4.63;;;3.30;;
58302;SDS011;44109;52.398;7.024;2022-07-06T01:54:15;5.57;;;3.53;;
58302;SDS011;44109;52.398;7.024;2022-07-06T01:56:44;4.53;;;3.42;;
58302;SDS011;44109;52.398;7.024;2022-07-06T01:59:12;4.78;;;3.45;;
58302;SDS011;44109;52.398;7.024;2022-07-06T02:01:39;6.15;;;3.63;;
58302;SDS011;44109;52.398;7.024;2022-07-06T02:04:07;5.82;;;3.17;;
58302;SDS011;44109;52.398;7.024;2022-07-06T02:06:34;4.88;;;4.00;;
58302;SDS011;44109;52.398;7.024;2022-07-06T02:09:02;5.63;;;3.33;;
58302;SDS011;44109;52.398;7.024;2022-07-06T02:11:30;6.43;;;3.30;;
58302;SDS011;44109;52.398;7.024;2022-07-06T02:13:58;4.53;;;3.15;;
58302;SDS011;44109;52.398;7.024;2022-07-06T02:16:26;5.63;;;3.35;;
58302;SDS011;44109;52.398;7.024;2022-07-06T02:18:53;4.03;;;3.17;;
58302;SDS011;44109;52.398;7.024;2022-07-06T02:21:21;4.55;;;3.38;;
58302;SDS011;44109;52.398;7.024;2022-07-06T02:23:48;4.07;;;2.85;;
58302;SDS011;44109;52.398;7.024;2022-07-06T02:26:16;4.30;;;2.75;;
58302;SDS011;44109;52.398;7.024;2022-07-06T02:28:44;6.70;;;2.90;;
58302;SDS011;44109;52.398;7.024;2022-07-06T02:31:13;3.72;;;2.63;;
58302;SDS011;44109;52.398;7.024;2022-07-06T02:33:41;5.85;;;3.33;;
58302;SDS011;44109;52.398;7.024;2022-07-06T02:36:09;3.63;;;2.55;;
58302;SDS011;44109;52.398;7.024;2022-07-06T02:38:36;3.47;;;2.72;;
58302;SDS011;44109;52.398;7.024;2022-07-06T02:41:04;4.35;;;3.00;;
58302;SDS011;44109;52.398;7.024;2022-07-06T02:43:31;6.05;;;3.28;;
58302;SDS011;44109;52.398;7.024;2022-07-06T02:45:59;6.35;;;3.00;;
58302;SDS011;44109;52.398;7.024;2022-07-06T02:48:28;4.63;;;3.67;;
58302;SDS011;44109;52.398;7.024;2022-07-06T02:50:55;5.47;;;2.92;;
58302;SDS011;44109;52.398;7.024;2022-07-06T02:53:24;5.68;;;3.88;;
58302;SDS011;44109;52.398;7.024;2022-07-06T02:55:52;3.97;;;2.30;;
58302;SDS011;44109;52.398;7.024;2022-07-06T02:58:19;3.95;;;2.67;;
58302;SDS011;44109;52.398;7.024;2022-07-06T03:00:47;5.47;;;2.67;;
58302;SDS011;44109;52.398;7.024;2022-07-06T03:03:14;5.57;;;3.05;;
58302;SDS011;44109;52.398;7.024;2022-07-06T03:05:43;5.30;;;2.92;;
58302;SDS011;44109;52.398;7.024;2022-07-06T03:08:12;3.55;;;2.50;;
58302;SDS011;44109;52.398;7.024;2022-07-06T03:10:40;4.32;;;2.80;;
58302;SDS011;44109;52.398;7.024;2022-07-06T03:13:08;5.05;;;3.17;;
58302;SDS011;44109;52.398;7.024;2022-07-06T03:15:35;3.28;;;2.22;;
58302;SDS011;44109;52.398;7.024;2022-07-06T03:18:03;3.78;;;2.42;;
58302;SDS011;44109;52.398;7.024;2022-07-06T03:20:30;4.55;;;2.90;;
58302;SDS011;44109;52.398;7.024;2022-07-06T03:22:59;3.33;;;2.30;;
58302;SDS011;44109;52.398;7.024;2022-07-06T03:25:26;3.75;;;2.70;;
58302;SDS011;44109;52.398;7.024;2022-07-06T03:27:54;4.07;;;2.85;;
58302;SDS011;44109;52.398;7.024;2022-07-06T03:30:21;5.38;;;3.08;;
58302;SDS011;44109;52.398;7.024;2022-07-06T03:32:49;3.55;;;2.42;;
58302;SDS011;44109;52.398;7.024;2022-07-06T03:35:16;4.03;;;2.90;;
58302;SDS011;44109;52.398;7.024;2022-07-06T03:37:44;4.93;;;2.60;;
58302;SDS011;44109;52.398;7.024;2022-07-06T03:40:13;3.13;;;2.15;;
58302;SDS011;44109;52.398;7.024;2022-07-06T03:42:41;4.80;;;2.80;;
58302;SDS011;44109;52.398;7.024;2022-07-06T03:45:09;4.50;;;2.80;;
58302;SDS011;44109;52.398;7.024;2022-07-06T03:47:37;3.67;;;2.70;;
58302;SDS011;44109;52.398;7.024;2022-07-06T03:50:05;3.97;;;2.40;;
58302;SDS011;44109;52.398;7.024;2022-07-06T03:52:34;4.20;;;2.40;;
58302;SDS011;44109;52.398;7.024;2022-07-06T03:55:06;3.22;;;1.92;;
58302;SDS011;44109;52.398;7.024;2022-07-06T03:57:37;3.58;;;2.55;;
58302;SDS011;44109;52.398;7.024;2022-07-06T04:00:06;3.80;;;2.20;;
58302;SDS011;44109;52.398;7.024;2022-07-06T04:02:36;3.92;;;2.50;;
58302;SDS011;44109;52.398;7.024;2022-07-06T04:05:04;4.40;;;2.53;;
58302;SDS011;44109;52.398;7.024;2022-07-06T04:07:33;6.13;;;2.67;;
58302;SDS011;44109;52.398;7.024;2022-07-06T04:10:01;4.20;;;2.50;;
58302;SDS011;44109;52.398;7.024;2022-07-06T04:12:29;5.15;;;3.20;;
58302;SDS011;44109;52.398;7.024;2022-07-06T04:14:58;4.13;;;2.10;;
58302;SDS011;44109;52.398;7.024;2022-07-06T04:17:25;3.15;;;2.40;;
58302;SDS011;44109;52.398;7.024;2022-07-06T04:20:10;3.08;;;2.08;;
58302;SDS011;44109;52.398;7.024;2022-07-06T04:22:38;5.95;;;2.38;;
58302;SDS011;44109;52.398;7.024;2022-07-06T04:25:06;4.82;;;2.33;;
58302;SDS011;44109;52.398;7.024;2022-07-06T04:27:35;4.07;;;2.47;;
58302;SDS011;44109;52.398;7.024;2022-07-06T04:30:05;3.40;;;2.17;;
58302;SDS011;44109;52.398;7.024;2022-07-06T04:32:34;3.58;;;2.20;;
58302;SDS011;44109;52.398;7.024;2022-07-06T04:35:02;3.65;;;2.45;;
58302;SDS011;44109;52.398;7.024;2022-07-06T04:37:32;2.45;;;2.17;;
58302;SDS011;44109;52.398;7.024;2022-07-06T04:39:59;4.13;;;1.95;;
58302;SDS011;44109;52.398;7.024;2022-07-06T04:42:27;3.42;;;2.45;;
58302;SDS011;44109;52.398;7.024;2022-07-06T04:44:54;4.65;;;2.60;;
58302;SDS011;44109;52.398;7.024;2022-07-06T04:50:10;4.07;;;2.10;;
58302;SDS011;44109;52.398;7.024;2022-07-06T04:52:38;3.35;;;1.90;;
58302;SDS011;44109;52.398;7.024;2022-07-06T04:55:06;3.72;;;2.10;;
58302;SDS011;44109;52.398;7.024;2022-07-06T04:57:34;6.43;;;2.53;;
58302;SDS011;44109;52.398;7.024;2022-07-06T05:00:02;4.47;;;2.42;;
58302;SDS011;44109;52.398;7.024;2022-07-06T05:02:31;2.65;;;1.98;;
58302;SDS011;44109;52.398;7.024;2022-07-06T05:05:00;3.50;;;1.95;;
58302;SDS011;44109;52.398;7.024;2022-07-06T05:07:28;3.88;;;2.05;;
58302;SDS011;44109;52.398;7.024;2022-07-06T05:09:56;3.97;;;2.15;;
58302;SDS011;44109;52.398;7.024;2022-07-06T05:12:24;5.28;;;2.00;;
58302;SDS011;44109;52.398;7.024;2022-07-06T05:14:51;4.18;;;2.03;;
58302;SDS011;44109;52.398;7.024;2022-07-06T05:17:19;3.97;;;2.05;;
58302;SDS011;44109;52.398;7.024;2022-07-06T05:19:46;7.38;;;2.30;;
58302;SDS011;44109;52.398;7.024;2022-07-06T05:22:15;4.47;;;2.22;;
58302;SDS011;44109;52.398;7.024;2022-07-06T05:24:43;3.40;;;2.03;;
58302;SDS011;44109;52.398;7.024;2022-07-06T05:27:10;4.35;;;1.83;;
58302;SDS011;44109;52.398;7.024;2022-07-06T05:29:38;5.40;;;2.45;;
58302;SDS011;44109;52.398;7.024;2022-07-06T05:32:05;3.55;;;2.30;;
58302;SDS011;44109;52.398;7.024;2022-07-06T05:34:34;6.18;;;2.20;;
58302;SDS011;44109;52.398;7.024;2022-07-06T05:37:02;3.10;;;2.00;;
58302;SDS011;44109;52.398;7.024;2022-07-06T05:39:31;3.35;;;2.08;;
58302;SDS011;44109;52.398;7.024;2022-07-06T05:41:59;4.07;;;2.15;;
58302;SDS011;44109;52.398;7.024;2022-07-06T05:44:26;3.15;;;1.80;;
58302;SDS011;44109;52.398;7.024;2022-07-06T05:46:54;3.42;;;2.20;;
58302;SDS011;44109;52.398;7.024;2022-07-06T05:49:42;2.95;;;1.83;;
58302;SDS011;44109;52.398;7.024;2022-07-06T05:52:27;4.43;;;2.35;;
58302;SDS011;44109;52.398;7.024;2022-07-06T05:54:56;5.05;;;2.33;;
58302;SDS011;44109;52.398;7.024;2022-07-06T05:57:23;4.25;;;2.22;;
58302;SDS011;44109;52.398;7.024;2022-07-06T05:59:52;4.57;;;2.28;;
58302;SDS011;44109;52.398;7.024;2022-07-06T06:02:19;2.92;;;1.58;;
58302;SDS011;44109;52.398;7.024;2022-07-06T06:04:47;9.65;;;3.17;;
58302;SDS011;44109;52.398;7.024;2022-07-06T06:07:14;4.97;;;1.60;;
58302;SDS011;44109;52.398;7.024;2022-07-06T06:09:42;4.20;;;1.90;;
58302;SDS011;44109;52.398;7.024;2022-07-06T06:12:12;3.35;;;1.77;;
58302;SDS011;44109;52.398;7.024;2022-07-06T06:14:40;5.78;;;1.88;;
58302;SDS011;44109;52.398;7.024;2022-07-06T06:17:07;2.28;;;1.27;;
58302;SDS011;44109;52.398;7.024;2022-07-06T06:19:35;4.07;;;1.25;;
58302;SDS011;44109;52.398;7.024;2022-07-06T06:22:03;2.10;;;1.00;;
58302;SDS011;44109;52.398;7.024;2022-07-06T06:24:31;3.75;;;1.30;;
58302;SDS011;44109;52.398;7.024;2022-07-06T06:26:58;2.22;;;1.10;;
58302;SDS011;44109;52.398;7.024;2022-07-06T06:29:27;2.85;;;1.27;;
58302;SDS011;44109;52.398;7.024;2022-07-06T06:31:54;3.28;;;1.10;;
58302;SDS011;44109;52.398;7.024;2022-07-06T06:34:22;2.22;;;1.13;;
58302;SDS011;44109;52.398;7.024;2022-07-06T06:36:49;4.20;;;1.17;;
58302;SDS011;44109;52.398;7.024;2022-07-06T06:39:17;1.60;;;0.80;;
58302;SDS011;44109;52.398;7.024;2022-07-06T06:41:44;1.65;;;0.73;;
58302;SDS011;44109;52.398;7.024;2022-07-06T06:44:12;4.55;;;0.90;;
58302;SDS011;44109;52.398;7.024;2022-07-06T06:46:41;1.95;;;0.60;;
58302;SDS011;44109;52.398;7.024;2022-07-06T06:49:09;2.08;;;0.77;;
58302;SDS011;44109;52.398;7.024;2022-07-06T06:51:36;2.75;;;0.70;;
58302;SDS011;44109;52.398;7.024;2022-07-06T06:54:05;1.63;;;0.57;;
58302;SDS011;44109;52.398;7.024;2022-07-06T06:56:33;3.05;;;0.70;;
58302;SDS011;44109;52.398;7.024;2022-07-06T06:59:00;3.40;;;0.55;;
58302;SDS011;44109;52.398;7.024;2022-07-06T07:01:28;2.35;;;0.50;;
58302;SDS011;44109;52.398;7.024;2022-07-06T07:03:57;2.55;;;0.70;;
58302;SDS011;44109;52.398;7.024;2022-07-06T07:06:25;2.28;;;0.60;;
58302;SDS011;44109;52.398;7.024;2022-07-06T07:08:53;4.13;;;0.90;;
58302;SDS011;44109;52.398;7.024;2022-07-06T07:11:21;1.88;;;0.50;;
58302;SDS011;44109;52.398;7.024;2022-07-06T07:13:49;1.42;;;0.60;;
58302;SDS011;44109;52.398;7.024;2022-07-06T07:16:16;2.25;;;0.55;;
58302;SDS011;44109;52.398;7.024;2022-07-06T07:18:43;2.33;;;0.57;;
58302;SDS011;44109;52.398;7.024;2022-07-06T07:21:12;1.45;;;0.45;;
58302;SDS011;44109;52.398;7.024;2022-07-06T07:23:40;1.65;;;0.50;;
58302;SDS011;44109;52.398;7.024;2022-07-06T07:26:07;1.65;;;0.32;;
58302;SDS011;44109;52.398;7.024;2022-07-06T07:28:35;0.57;;;0.40;;
58302;SDS011;44109;52.398;7.024;2022-07-06T07:31:03;1.52;;;0.63;;
58302;SDS011;44109;52.398;7.024;2022-07-06T07:33:31;1.67;;;0.40;;
58302;SDS011;44109;52.398;7.024;2022-07-06T07:35:59;2.33;;;0.77;;
58302;SDS011;44109;52.398;7.024;2022-07-06T07:38:28;1.90;;;0.63;;
58302;SDS011;44109;52.398;7.024;2022-07-06T07:40:55;1.48;;;0.60;;
58302;SDS011;44109;52.398;7.024;2022-07-06T07:43:23;1.10;;;0.40;;
58302;SDS011;44109;52.398;7.024;2022-07-06T07:45:51;2.22;;;0.60;;
58302;SDS011;44109;52.398;7.024;2022-07-06T07:48:19;1.90;;;0.40;;
58302;SDS011;44109;52.398;7.024;2022-07-06T07:50:46;1.48;;;0.30;;
58302;SDS011;44109;52.398;7.024;2022-07-06T07:53:14;2.22;;;0.40;;
58302;SDS011;44109;52.398;7.024;2022-07-06T07:55:43;0.98;;;0.50;;
58302;SDS011;44109;52.398;7.024;2022-07-06T07:58:10;2.90;;;0.63;;
58302;SDS011;44109;52.398;7.024;2022-07-06T08:00:38;3.13;;;0.50;;
58302;SDS011;44109;52.398;7.024;2022-07-06T08:03:05;0.95;;;0.35;;
58302;SDS011;44109;52.398;7.024;2022-07-06T08:05:33;1.00;;;0.50;;
58302;SDS011;44109;52.398;7.024;2022-07-06T08:08:00;0.88;;;0.20;;
58302;SDS011;44109;52.398;7.024;2022-07-06T08:10:28;2.03;;;0.77;;
58302;SDS011;44109;52.398;7.024;2022-07-06T08:12:57;1.20;;;0.38;;
58302;SDS011;44109;52.398;7.024;2022-07-06T08:15:24;1.90;;;0.43;;
58302;SDS011;44109;52.398;7.024;2022-07-06T08:17:52;0.85;;;0.30;;
58302;SDS011;44109;52.398;7.024;2022-07-06T08:20:19;1.98;;;0.60;;
58302;SDS011;44109;52.398;7.024;2022-07-06T08:22:47;2.35;;;0.30;;
58302;SDS011;44109;52.398;7.024;2022-07-06T08:25:14;2.63;;;0.40;;
58302;SDS011;44109;52.398;7.024;2022-07-06T08:27:43;0.93;;;0.20;;
58302;SDS011;44109;52.398;7.024;2022-07-06T08:30:12;0.90;;;0.30;;
58302;SDS011;44109;52.398;7.024;2022-07-06T08:32:40;1.25;;;0.40;;
58302;SDS011;44109;52.398;7.024;2022-07-06T08:35:09;2.67;;;0.60;;
58302;SDS011;44109;52.398;7.024;2022-07-06T08:37:37;2.47;;;0.32;;
58302;SDS011;44109;52.398;7.024;2022-07-06T08:40:05;2.47;;;0.50;;
58302;SDS011;44109;52.398;7.024;2022-07-06T08:42:34;4.30;;;0.60;;
58302;SDS011;44109;52.398;7.024;2022-07-06T08:45:04;1.80;;;0.30;;
58302;SDS011;44109;52.398;7.024;2022-07-06T08:47:36;1.30;;;0.35;;
58302;SDS011;44109;52.398;7.024;2022-07-06T08:50:04;2.28;;;0.30;;
58302;SDS011;44109;52.398;7.024;2022-07-06T08:52:33;1.42;;;0.30;;
58302;SDS011;44109;52.398;7.024;2022-07-06T08:55:02;1.98;;;0.65;;
58302;SDS011;44109;52.398;7.024;2022-07-06T08:57:30;1.70;;;0.40;;
58302;SDS011;44109;52.398;7.024;2022-07-06T08:59:57;0.90;;;0.32;;
58302;SDS011;44109;52.398;7.024;2022-07-06T09:02:26;1.00;;;0.30;;
58302;SDS011;44109;52.398;7.024;2022-07-06T09:04:55;2.05;;;0.52;;
58302;SDS011;44109;52.398;7.024;2022-07-06T09:07:24;1.40;;;0.40;;
58302;SDS011;44109;52.398;7.024;2022-07-06T09:09:55;1.67;;;0.38;;
58302;SDS011;44109;52.398;7.024;2022-07-06T09:12:26;2.13;;;0.35;;
58302;SDS011;44109;52.398;7.024;2022-07-06T09:14:54;0.70;;;0.20;;
58302;SDS011;44109;52.398;7.024;2022-07-06T09:17:24;3.95;;;0.70;;
58302;SDS011;44109;52.398;7.024;2022-07-06T09:19:54;0.13;;;0.13;;
58302;SDS011;44109;52.398;7.024;2022-07-06T09:22:27;1.63;;;0.43;;
58302;SDS011;44109;52.398;7.024;2022-07-06T09:25:03;1.40;;;0.50;;
58302;SDS011;44109;52.398;7.024;2022-07-06T09:27:36;3.03;;;0.40;;
58302;SDS011;44109;52.398;7.024;2022-07-06T09:30:05;2.97;;;0.50;;
58302;SDS011;44109;52.398;7.024;2022-07-06T09:32:38;2.17;;;0.50;;
58302;SDS011;44109;52.398;7.024;2022-07-06T09:35:09;1.65;;;0.45;;
58302;SDS011;44109;52.398;7.024;2022-07-06T09:37:51;2.08;;;0.40;;
58302;SDS011;44109;52.398;7.024;2022-07-06T09:40:31;2.45;;;0.43;;
58302;SDS011;44109;52.398;7.024;2022-07-06T09:43:08;1.52;;;0.40;;
58302;SDS011;44109;52.398;7.024;2022-07-06T09:45:41;3.17;;;0.55;;
58302;SDS011;44109;52.398;7.024;2022-07-06T09:48:12;2.55;;;0.40;;
58302;SDS011;44109;52.398;7.024;2022-07-06T09:50:46;2.90;;;0.30;;
58302;SDS011;44109;52.398;7.024;2022-07-06T09:53:17;1.15;;;0.32;;
58302;SDS011;44109;52.398;7.024;2022-07-06T09:55:47;1.73;;;0.52;;
58302;SDS011;44109;52.398;7.024;2022-07-06T09:58:16;2.42;;;0.40;;
58302;SDS011;44109;52.398;7.024;2022-07-06T10:00:45;2.95;;;0.43;;
58302;SDS011;44109;52.398;7.024;2022-07-06T10:03:14;1.58;;;0.38;;
58302;SDS011;44109;52.398;7.024;2022-07-06T10:05:45;4.32;;;0.50;;
58302;SDS011;44109;52.398;7.024;2022-07-06T10:08:15;1.95;;;0.50;;
58302;SDS011;44109;52.398;7.024;2022-07-06T10:10:44;1.55;;;0.30;;
58302;SDS011;44109;52.398;7.024;2022-07-06T10:13:12;1.98;;;0.32;;
58302;SDS011;44109;52.398;7.024;2022-07-06T10:15:48;1.15;;;0.40;;
58302;SDS011;44109;52.398;7.024;2022-07-06T10:18:17;1.73;;;0.65;;
58302;SDS011;44109;52.398;7.024;2022-07-06T10:20:47;1.20;;;0.20;;
58302;SDS011;44109;52.398;7.024;2022-07-06T10:23:14;1.10;;;0.52;;
58302;SDS011;44109;52.398;7.024;2022-07-06T10:25:43;1.13;;;0.35;;
58302;SDS011;44109;52.398;7.024;2022-07-06T10:28:14;0.93;;;0.40;;
58302;SDS011;44109;52.398;7.024;2022-07-06T10:30:42;1.73;;;0.45;;
58302;SDS011;44109;52.398;7.024;2022-07-06T10:33:12;3.63;;;0.70;;
58302;SDS011;44109;52.398;7.024;2022-07-06T10:35:43;0.63;;;0.20;;
58302;SDS011;44109;52.398;7.024;2022-07-06T10:38:13;0.88;;;0.28;;
58302;SDS011;44109;52.398;7.024;2022-07-06T10:40:42;1.05;;;0.40;;
58302;SDS011;44109;52.398;7.024;2022-07-06T10:43:33;0.70;;;0.28;;
58302;SDS011;44109;52.398;7.024;2022-07-06T10:46:06;1.73;;;0.35;;
58302;SDS011;44109;52.398;7.024;2022-07-06T10:48:36;0.57;;;0.20;;
58302;SDS011;44109;52.398;7.024;2022-07-06T10:51:07;0.98;;;0.40;;
58302;SDS011;44109;52.398;7.024;2022-07-06T10:53:37;0.85;;;0.22;;
58302;SDS011;44109;52.398;7.024;2022-07-06T10:56:07;1.33;;;0.30;;
58302;SDS011;44109;52.398;7.024;2022-07-06T10:58:37;2.42;;;0.30;;
58302;SDS011;44109;52.398;7.024;2022-07-06T11:01:08;3.03;;;0.47;;
58302;SDS011;44109;52.398;7.024;2022-07-06T11:03:38;0.32;;;0.10;;
58302;SDS011;44109;52.398;7.024;2022-07-06T11:06:11;1.25;;;0.20;;
58302;SDS011;44109;52.398;7.024;2022-07-06T11:08:44;0.65;;;0.20;;
58302;SDS011;44109;52.398;7.024;2022-07-06T11:11:22;2.28;;;0.52;;
58302;SDS011;44109;52.398;7.024;2022-07-06T11:13:56;1.13;;;0.45;;
58302;SDS011;44109;52.398;7.024;2022-07-06T11:16:28;1.10;;;0.30;;
58302;SDS011;44109;52.398;7.024;2022-07-06T11:19:00;1.45;;;0.30;;
58302;SDS011;44109;52.398;7.024;2022-07-06T11:21:38;2.70;;;0.30;;
58302;SDS011;44109;52.398;7.024;2022-07-06T11:24:12;1.60;;;0.40;;
58302;SDS011;44109;52.398;7.024;2022-07-06T11:26:42;1.23;;;0.40;;
58302;SDS011;44109;52.398;7.024;2022-07-06T11:29:13;0.80;;;0.45;;
58302;SDS011;44109;52.398;7.024;2022-07-06T11:31:43;1.70;;;0.22;;
58302;SDS011;44109;52.398;7.024;2022-07-06T11:34:17;1.52;;;0.30;;
58302;SDS011;44109;52.398;7.024;2022-07-06T11:36:48;1.70;;;0.45;;
58302;SDS011;44109;52.398;7.024;2022-07-06T11:39:16;1.95;;;0.40;;
58302;SDS011;44109;52.398;7.024;2022-07-06T11:41:43;1.42;;;0.50;;
58302;SDS011;44109;52.398;7.024;2022-07-06T11:44:11;2.22;;;0.60;;
58302;SDS011;44109;52.398;7.024;2022-07-06T11:46:38;1.58;;;0.43;;
58302;SDS011;44109;52.398;7.024;2022-07-06T11:49:06;1.75;;;0.20;;
58302;SDS011;44109;52.398;7.024;2022-07-06T11:51:36;0.68;;;0.20;;
58302;SDS011;44109;52.398;7.024;2022-07-06T11:54:09;0.90;;;0.35;;
58302;SDS011;44109;52.398;7.024;2022-07-06T11:56:45;1.77;;;0.40;;
58302;SDS011;44109;52.398;7.024;2022-07-06T11:59:15;3.25;;;0.50;;
58302;SDS011;44109;52.398;7.024;2022-07-06T12:01:46;1.10;;;0.40;;
58302;SDS011;44109;52.398;7.024;2022-07-06T12:04:14;4.30;;;0.50;;
58302;SDS011;44109;52.398;7.024;2022-07-06T12:06:43;2.47;;;0.30;;
58302;SDS011;44109;52.398;7.024;2022-07-06T12:09:12;0.90;;;0.35;;
58302;SDS011;44109;52.398;7.024;2022-07-06T12:11:40;1.63;;;0.30;;
58302;SDS011;44109;52.398;7.024;2022-07-06T12:14:13;1.83;;;0.40;;
58302;SDS011;44109;52.398;7.024;2022-07-06T12:16:44;0.77;;;0.20;;
58302;SDS011;44109;52.398;7.024;2022-07-06T12:19:13;0.85;;;0.30;;
58302;SDS011;44109;52.398;7.024;2022-07-06T12:21:44;3.50;;;0.50;;
58302;SDS011;44109;52.398;7.024;2022-07-06T12:24:19;0.68;;;0.30;;
58302;SDS011;44109;52.398;7.024;2022-07-06T12:26:50;0.57;;;0.13;;
58302;SDS011;44109;52.398;7.024;2022-07-06T12:29:21;0.85;;;0.20;;
58302;SDS011;44109;52.398;7.024;2022-07-06T12:31:50;0.47;;;0.20;;
58302;SDS011;44109;52.398;7.024;2022-07-06T12:34:20;0.45;;;0.20;;
58302;SDS011;44109;52.398;7.024;2022-07-06T12:36:50;1.70;;;0.30;;
58302;SDS011;44109;52.398;7.024;2022-07-06T12:39:22;2.95;;;0.43;;
58302;SDS011;44109;52.398;7.024;2022-07-06T12:41:52;1.63;;;0.20;;
58302;SDS011;44109;52.398;7.024;2022-07-06T12:44:22;0.30;;;0.10;;
58302;SDS011;44109;52.398;7.024;2022-07-06T12:47:01;0.88;;;0.20;;
58302;SDS011;44109;52.398;7.024;2022-07-06T12:49:31;1.83;;;0.50;;
58302;SDS011;44109;52.398;7.024;2022-07-06T12:52:00;1.73;;;0.28;;
58302;SDS011;44109;52.398;7.024;2022-07-06T12:54:41;0.95;;;0.32;;
58302;SDS011;44109;52.398;7.024;2022-07-06T12:57:12;3.33;;;0.65;;
58302;SDS011;44109;52.398;7.024;2022-07-06T12:59:42;1.60;;;0.35;;
58302;SDS011;44109;52.398;7.024;2022-07-06T13:02:19;0.65;;;0.20;;
58302;SDS011;44109;52.398;7.024;2022-07-06T13:04:55;1.45;;;0.38;;
58302;SDS011;44109;52.398;7.024;2022-07-06T13:07:25;1.60;;;0.25;;
58302;SDS011;44109;52.398;7.024;2022-07-06T13:09:55;1.52;;;0.50;;
58302;SDS011;44109;52.398;7.024;2022-07-06T13:12:23;1.95;;;0.63;;
58302;SDS011;44109;52.398;7.024;2022-07-06T13:14:52;2.17;;;0.40;;
58302;SDS011;44109;52.398;7.024;2022-07-06T13:17:20;1.45;;;0.40;;
58302;SDS011;44109;52.398;7.024;2022-07-06T13:19:48;1.67;;;0.60;;
58302;SDS011;44109;52.398;7.024;2022-07-06T13:22:15;2.45;;;0.60;;
58302;SDS011;44109;52.398;7.024;2022-07-06T13:24:43;1.67;;;0.70;;
58302;SDS011;44109;52.398;7.024;2022-07-06T13:27:12;1.75;;;0.50;;
58302;SDS011;44109;52.398;7.024;2022-07-06T13:29:40;1.88;;;0.75;;
58302;SDS011;44109;52.398;7.024;2022-07-06T13:32:07;2.17;;;0.70;;
58302;SDS011;44109;52.398;7.024;2022-07-06T13:34:35;3.65;;;1.05;;
58302;SDS011;44109;52.398;7.024;2022-07-06T13:37:03;3.38;;;1.00;;
58302;SDS011;44109;52.398;7.024;2022-07-06T13:39:32;2.15;;;0.85;;
58302;SDS011;44109;52.398;7.024;2022-07-06T13:41:59;2.65;;;0.95;;
58302;SDS011;44109;52.398;7.024;2022-07-06T13:44:28;2.33;;;0.68;;
58302;SDS011;44109;52.398;7.024;2022-07-06T13:46:56;1.83;;;0.80;;
58302;SDS011;44109;52.398;7.024;2022-07-06T13:49:23;5.32;;;0.77;;
58302;SDS011;44109;52.398;7.024;2022-07-06T13:51:51;4.15;;;1.20;;
58302;SDS011;44109;52.398;7.024;2022-07-06T13:54:20;3.75;;;0.68;;
58302;SDS011;44109;52.398;7.024;2022-07-06T13:56:47;2.30;;;0.30;;
58302;SDS011;44109;52.398;7.024;2022-07-06T13:59:15;1.05;;;0.25;;
58302;SDS011;44109;52.398;7.024;2022-07-06T14:01:44;0.60;;;0.30;;
58302;SDS011;44109;52.398;7.024;2022-07-06T14:04:11;2.97;;;0.70;;
58302;SDS011;44109;52.398;7.024;2022-07-06T14:06:39;3.88;;;1.00;;
58302;SDS011;44109;52.398;7.024;2022-07-06T14:09:06;1.80;;;0.50;;
58302;SDS011;44109;52.398;7.024;2022-07-06T14:11:34;1.08;;;0.32;;
58302;SDS011;44109;52.398;7.024;2022-07-06T14:14:02;1.77;;;0.50;;
58302;SDS011;44109;52.398;7.024;2022-07-06T14:16:32;5.60;;;1.00;;
58302;SDS011;44109;52.398;7.024;2022-07-06T14:19:02;2.05;;;0.52;;
58302;SDS011;44109;52.398;7.024;2022-07-06T14:21:30;1.50;;;0.38;;
58302;SDS011;44109;52.398;7.024;2022-07-06T14:23:57;1.08;;;0.35;;
58302;SDS011;44109;52.398;7.024;2022-07-06T14:26:25;1.73;;;0.40;;
58302;SDS011;44109;52.398;7.024;2022-07-06T14:28:52;1.40;;;0.35;;
58302;SDS011;44109;52.398;7.024;2022-07-06T14:31:20;2.00;;;0.52;;
58302;SDS011;44109;52.398;7.024;2022-07-06T14:33:47;2.55;;;0.43;;
58302;SDS011;44109;52.398;7.024;2022-07-06T14:36:17;0.28;;;0.22;;
58302;SDS011;44109;52.398;7.024;2022-07-06T14:38:45;2.10;;;0.90;;
58302;SDS011;44109;52.398;7.024;2022-07-06T14:41:13;3.05;;;1.50;;
58302;SDS011;44109;52.398;7.024;2022-07-06T14:43:40;3.80;;;1.20;;
58302;SDS011;44109;52.398;7.024;2022-07-06T14:46:08;2.22;;;0.50;;
58302;SDS011;44109;52.398;7.024;2022-07-06T14:48:35;2.70;;;0.65;;
58302;SDS011;44109;52.398;7.024;2022-07-06T14:51:03;1.25;;;0.40;;
58302;SDS011;44109;52.398;7.024;2022-07-06T14:53:32;3.75;;;0.60;;
58302;SDS011;44109;52.398;7.024;2022-07-06T14:56:00;1.20;;;0.40;;
58302;SDS011;44109;52.398;7.024;2022-07-06T14:58:27;1.48;;;0.38;;
58302;SDS011;44109;52.398;7.024;2022-07-06T15:00:55;2.88;;;0.70;;